Terminal Aerodrome Forecast
Issued by NWS

Home | Current Version | Previous Version | Text Only | Print | Product List | Glossary On
Versions: 1 2 3 4 5 6 7 8 9 10 11 12 13 14 15 16 17 18 19 20 21 22 23 24
000
FTUS45 KBOU 192336
TAFBJC
TAF
KBJC 192336Z 2000/2024 04006KT P6SM FEW140 BKN220
     FM200300 25010KT P6SM FEW140 BKN220
     FM202000 03012KT P6SM FEW070 SCT120 BKN180=

USA.gov is the U.S. government's official web portal to all federal, state and local government web resources and services.